Terminal Aerodrome Forecast
Issued by NWS

Home | Current Version | Previous Version | Graphics & Text | Print | Product List | Glossary On
Versions: 1 2 3 4 5 6 7 8 9 10 11 12 13 14 15 16 17 18 19 20 21
000
FTUS43 KUNR 221252 AAA
TAFGCC
TAF AMD
KGCC 221252Z 2213/2312 35012KT P6SM SCT030
      TEMPO 2213/2215 BKN025
     FM222200 04009KT P6SM -SHRA BKN020
     FM230200 36005KT P6SM -SHRA OVC010=

USA.gov is the U.S. government's official web portal to all federal, state and local government web resources and services.